sensor_id;sensor_type;location;lat;lon;timestamp;P1;durP1;ratioP1;P2;durP2;ratioP2
42802;SDS011;28447;48.682;9.022;2023-04-25T04:02:08;7.07;;;4.70;;
42802;SDS011;28447;48.682;9.022;2023-04-25T04:04:35;5.70;;;4.17;;
42802;SDS011;28447;48.682;9.022;2023-04-25T04:07:01;8.27;;;4.70;;
42802;SDS011;28447;48.682;9.022;2023-04-25T04:09:27;6.50;;;5.27;;
42802;SDS011;28447;48.682;9.022;2023-04-25T04:11:53;8.20;;;5.50;;
42802;SDS011;28447;48.682;9.022;2023-04-25T04:14:19;6.33;;;4.77;;
42802;SDS011;28447;48.682;9.022;2023-04-25T04:16:45;5.87;;;4.80;;
42802;SDS011;28447;48.682;9.022;2023-04-25T04:19:11;7.13;;;4.40;;
42802;SDS011;28447;48.682;9.022;2023-04-25T04:21:37;6.83;;;4.60;;
42802;SDS011;28447;48.682;9.022;2023-04-25T04:24:03;6.27;;;4.23;;
42802;SDS011;28447;48.682;9.022;2023-04-25T04:26:30;8.27;;;4.60;;
42802;SDS011;28447;48.682;9.022;2023-04-25T04:28:57;6.50;;;4.53;;
42802;SDS011;28447;48.682;9.022;2023-04-25T04:31:24;6.10;;;4.80;;
42802;SDS011;28447;48.682;9.022;2023-04-25T04:33:50;6.97;;;4.57;;
42802;SDS011;28447;48.682;9.022;2023-04-25T04:36:16;6.63;;;5.43;;
42802;SDS011;28447;48.682;9.022;2023-04-25T04:38:46;6.83;;;4.30;;
42802;SDS011;28447;48.682;9.022;2023-04-25T04:41:12;7.10;;;4.93;;
42802;SDS011;28447;48.682;9.022;2023-04-25T04:43:38;8.70;;;5.40;;
42802;SDS011;28447;48.682;9.022;2023-04-25T04:46:04;8.73;;;5.43;;
42802;SDS011;28447;48.682;9.022;2023-04-25T04:48:33;8.00;;;5.70;;
42802;SDS011;28447;48.682;9.022;2023-04-25T04:51:00;6.87;;;5.30;;
42802;SDS011;28447;48.682;9.022;2023-04-25T04:53:26;5.97;;;5.20;;
42802;SDS011;28447;48.682;9.022;2023-04-25T04:55:54;9.03;;;6.10;;
42802;SDS011;28447;48.682;9.022;2023-04-25T04:58:21;7.03;;;5.33;;
42802;SDS011;28447;48.682;9.022;2023-04-25T05:00:47;7.63;;;6.17;;
42802;SDS011;28447;48.682;9.022;2023-04-25T05:03:13;7.43;;;5.50;;
42802;SDS011;28447;48.682;9.022;2023-04-25T05:05:39;8.83;;;5.20;;
42802;SDS011;28447;48.682;9.022;2023-04-25T05:08:05;6.93;;;5.87;;
42802;SDS011;28447;48.682;9.022;2023-04-25T05:10:33;6.77;;;4.93;;
42802;SDS011;28447;48.682;9.022;2023-04-25T05:12:59;8.90;;;5.93;;
42802;SDS011;28447;48.682;9.022;2023-04-25T05:15:27;6.07;;;4.87;;
42802;SDS011;28447;48.682;9.022;2023-04-25T05:17:55;6.53;;;4.33;;
42802;SDS011;28447;48.682;9.022;2023-04-25T05:20:21;7.87;;;5.37;;
42802;SDS011;28447;48.682;9.022;2023-04-25T05:22:47;13.03;;;5.70;;
42802;SDS011;28447;48.682;9.022;2023-04-25T05:25:14;8.73;;;5.00;;
42802;SDS011;28447;48.682;9.022;2023-04-25T05:27:40;9.67;;;5.53;;
42802;SDS011;28447;48.682;9.022;2023-04-25T05:30:06;7.13;;;5.30;;
42802;SDS011;28447;48.682;9.022;2023-04-25T05:32:32;8.63;;;5.37;;
42802;SDS011;28447;48.682;9.022;2023-04-25T05:34:59;5.87;;;5.23;;
42802;SDS011;28447;48.682;9.022;2023-04-25T05:37:25;16.10;;;5.33;;
42802;SDS011;28447;48.682;9.022;2023-04-25T05:39:51;8.43;;;4.83;;
42802;SDS011;28447;48.682;9.022;2023-04-25T05:42:18;12.93;;;6.13;;
42802;SDS011;28447;48.682;9.022;2023-04-25T05:44:44;8.20;;;5.50;;
42802;SDS011;28447;48.682;9.022;2023-04-25T05:47:10;8.43;;;5.50;;
42802;SDS011;28447;48.682;9.022;2023-04-25T05:49:36;8.23;;;5.83;;
42802;SDS011;28447;48.682;9.022;2023-04-25T05:52:02;9.03;;;5.90;;
42802;SDS011;28447;48.682;9.022;2023-04-25T05:54:28;8.80;;;5.80;;
42802;SDS011;28447;48.682;9.022;2023-04-25T05:56:55;10.10;;;6.03;;
42802;SDS011;28447;48.682;9.022;2023-04-25T05:59:27;8.80;;;6.27;;
42802;SDS011;28447;48.682;9.022;2023-04-25T06:01:54;10.10;;;5.87;;
42802;SDS011;28447;48.682;9.022;2023-04-25T06:04:22;8.63;;;5.87;;
42802;SDS011;28447;48.682;9.022;2023-04-25T06:06:48;8.60;;;5.63;;
42802;SDS011;28447;48.682;9.022;2023-04-25T06:09:15;8.80;;;6.40;;
42802;SDS011;28447;48.682;9.022;2023-04-25T06:11:41;11.40;;;6.37;;
42802;SDS011;28447;48.682;9.022;2023-04-25T06:14:07;11.70;;;5.77;;
42802;SDS011;28447;48.682;9.022;2023-04-25T06:16:33;7.23;;;5.47;;
42802;SDS011;28447;48.682;9.022;2023-04-25T06:18:59;11.10;;;5.50;;
42802;SDS011;28447;48.682;9.022;2023-04-25T06:21:25;7.77;;;5.83;;
42802;SDS011;28447;48.682;9.022;2023-04-25T06:23:52;8.90;;;5.70;;
42802;SDS011;28447;48.682;9.022;2023-04-25T06:26:18;9.63;;;5.60;;
42802;SDS011;28447;48.682;9.022;2023-04-25T06:28:44;11.37;;;6.30;;
42802;SDS011;28447;48.682;9.022;2023-04-25T06:31:10;7.83;;;5.83;;
42802;SDS011;28447;48.682;9.022;2023-04-25T06:33:36;8.90;;;5.70;;
42802;SDS011;28447;48.682;9.022;2023-04-25T06:36:02;8.53;;;5.17;;
42802;SDS011;28447;48.682;9.022;2023-04-25T06:38:28;8.67;;;5.23;;
42802;SDS011;28447;48.682;9.022;2023-04-25T06:40:54;8.30;;;5.40;;
42802;SDS011;28447;48.682;9.022;2023-04-25T06:43:20;7.87;;;5.40;;
42802;SDS011;28447;48.682;9.022;2023-04-25T06:45:46;9.43;;;5.77;;
42802;SDS011;28447;48.682;9.022;2023-04-25T06:48:12;7.30;;;5.53;;
42802;SDS011;28447;48.682;9.022;2023-04-25T06:50:40;7.97;;;6.10;;
42802;SDS011;28447;48.682;9.022;2023-04-25T06:53:07;13.53;;;6.90;;
42802;SDS011;28447;48.682;9.022;2023-04-25T06:55:33;7.37;;;6.00;;
42802;SDS011;28447;48.682;9.022;2023-04-25T06:57:59;9.80;;;5.30;;
42802;SDS011;28447;48.682;9.022;2023-04-25T07:00:26;9.67;;;6.40;;
42802;SDS011;28447;48.682;9.022;2023-04-25T07:02:53;10.60;;;6.00;;
42802;SDS011;28447;48.682;9.022;2023-04-25T07:05:19;7.03;;;5.50;;
42802;SDS011;28447;48.682;9.022;2023-04-25T07:07:47;7.10;;;5.00;;
42802;SDS011;28447;48.682;9.022;2023-04-25T07:10:13;10.83;;;5.33;;
42802;SDS011;28447;48.682;9.022;2023-04-25T07:12:39;7.03;;;5.13;;
42802;SDS011;28447;48.682;9.022;2023-04-25T07:15:07;8.80;;;5.63;;
42802;SDS011;28447;48.682;9.022;2023-04-25T07:17:34;11.27;;;6.63;;
42802;SDS011;28447;48.682;9.022;2023-04-25T07:20:00;11.70;;;5.40;;
42802;SDS011;28447;48.682;9.022;2023-04-25T07:22:28;6.27;;;4.77;;
42802;SDS011;28447;48.682;9.022;2023-04-25T07:24:54;7.53;;;5.10;;
42802;SDS011;28447;48.682;9.022;2023-04-25T07:27:20;9.27;;;6.17;;
42802;SDS011;28447;48.682;9.022;2023-04-25T07:29:46;10.20;;;6.10;;
42802;SDS011;28447;48.682;9.022;2023-04-25T07:32:12;9.97;;;6.60;;
42802;SDS011;28447;48.682;9.022;2023-04-25T07:34:39;10.07;;;6.40;;
42802;SDS011;28447;48.682;9.022;2023-04-25T07:37:06;10.40;;;5.93;;
42802;SDS011;28447;48.682;9.022;2023-04-25T07:39:32;9.00;;;5.30;;
42802;SDS011;28447;48.682;9.022;2023-04-25T07:41:58;5.97;;;5.20;;
42802;SDS011;28447;48.682;9.022;2023-04-25T07:44:25;7.90;;;5.30;;
42802;SDS011;28447;48.682;9.022;2023-04-25T07:46:51;7.63;;;5.50;;
42802;SDS011;28447;48.682;9.022;2023-04-25T07:49:17;12.70;;;6.27;;
42802;SDS011;28447;48.682;9.022;2023-04-25T07:51:43;8.00;;;5.77;;
42802;SDS011;28447;48.682;9.022;2023-04-25T07:54:11;9.40;;;5.67;;
42802;SDS011;28447;48.682;9.022;2023-04-25T07:56:37;8.93;;;5.60;;
42802;SDS011;28447;48.682;9.022;2023-04-25T07:59:03;10.67;;;6.00;;
42802;SDS011;28447;48.682;9.022;2023-04-25T08:01:30;10.90;;;7.00;;
42802;SDS011;28447;48.682;9.022;2023-04-25T08:03:56;11.00;;;6.80;;
42802;SDS011;28447;48.682;9.022;2023-04-25T08:06:22;11.20;;;7.00;;
42802;SDS011;28447;48.682;9.022;2023-04-25T08:08:48;10.30;;;7.10;;
42802;SDS011;28447;48.682;9.022;2023-04-25T08:11:14;8.70;;;5.90;;
42802;SDS011;28447;48.682;9.022;2023-04-25T08:13:40;8.07;;;6.13;;
42802;SDS011;28447;48.682;9.022;2023-04-25T08:16:06;10.20;;;5.23;;
42802;SDS011;28447;48.682;9.022;2023-04-25T08:18:32;8.20;;;5.80;;
42802;SDS011;28447;48.682;9.022;2023-04-25T08:20:59;9.93;;;6.80;;
42802;SDS011;28447;48.682;9.022;2023-04-25T08:23:25;7.03;;;5.47;;
42802;SDS011;28447;48.682;9.022;2023-04-25T08:25:51;9.40;;;6.17;;
42802;SDS011;28447;48.682;9.022;2023-04-25T08:28:18;8.93;;;6.40;;
42802;SDS011;28447;48.682;9.022;2023-04-25T08:30:45;12.03;;;6.93;;
42802;SDS011;28447;48.682;9.022;2023-04-25T08:33:11;9.37;;;6.53;;
42802;SDS011;28447;48.682;9.022;2023-04-25T08:35:37;9.60;;;6.60;;
42802;SDS011;28447;48.682;9.022;2023-04-25T08:38:03;9.57;;;6.67;;
42802;SDS011;28447;48.682;9.022;2023-04-25T08:40:31;8.93;;;6.13;;
42802;SDS011;28447;48.682;9.022;2023-04-25T08:43:01;15.03;;;7.17;;
42802;SDS011;28447;48.682;9.022;2023-04-25T08:45:28;12.43;;;7.70;;
42802;SDS011;28447;48.682;9.022;2023-04-25T08:47:57;10.97;;;7.30;;
42802;SDS011;28447;48.682;9.022;2023-04-25T08:50:23;13.83;;;6.83;;
42802;SDS011;28447;48.682;9.022;2023-04-25T08:52:51;9.83;;;6.73;;
42802;SDS011;28447;48.682;9.022;2023-04-25T08:55:19;9.50;;;6.90;;
42802;SDS011;28447;48.682;9.022;2023-04-25T08:57:46;8.63;;;6.50;;
42802;SDS011;28447;48.682;9.022;2023-04-25T09:00:12;8.70;;;6.00;;
42802;SDS011;28447;48.682;9.022;2023-04-25T09:02:39;7.53;;;6.03;;
42802;SDS011;28447;48.682;9.022;2023-04-25T09:05:05;7.97;;;6.80;;
42802;SDS011;28447;48.682;9.022;2023-04-25T09:07:34;8.83;;;6.03;;
42802;SDS011;28447;48.682;9.022;2023-04-25T09:10:00;8.80;;;7.10;;
42802;SDS011;28447;48.682;9.022;2023-04-25T09:12:27;13.03;;;6.87;;
42802;SDS011;28447;48.682;9.022;2023-04-25T09:15:10;10.80;;;7.80;;
42802;SDS011;28447;48.682;9.022;2023-04-25T09:17:37;9.60;;;5.80;;
42802;SDS011;28447;48.682;9.022;2023-04-25T09:20:10;9.67;;;6.40;;
42802;SDS011;28447;48.682;9.022;2023-04-25T09:22:36;7.43;;;5.40;;
42802;SDS011;28447;48.682;9.022;2023-04-25T09:25:12;7.00;;;5.57;;
42802;SDS011;28447;48.682;9.022;2023-04-25T09:27:49;7.00;;;5.27;;
42802;SDS011;28447;48.682;9.022;2023-04-25T09:30:16;7.23;;;5.10;;
42802;SDS011;28447;48.682;9.022;2023-04-25T09:32:43;8.27;;;5.63;;
42802;SDS011;28447;48.682;9.022;2023-04-25T09:35:10;10.03;;;4.87;;
42802;SDS011;28447;48.682;9.022;2023-04-25T09:37:36;8.67;;;5.30;;
42802;SDS011;28447;48.682;9.022;2023-04-25T09:40:04;6.40;;;5.40;;
42802;SDS011;28447;48.682;9.022;2023-04-25T09:42:31;6.17;;;5.07;;
42802;SDS011;28447;48.682;9.022;2023-04-25T09:45:00;6.43;;;4.20;;
42802;SDS011;28447;48.682;9.022;2023-04-25T09:47:29;6.53;;;3.90;;
42802;SDS011;28447;48.682;9.022;2023-04-25T09:49:55;7.40;;;3.53;;
42802;SDS011;28447;48.682;9.022;2023-04-25T09:52:22;3.73;;;3.00;;
42802;SDS011;28447;48.682;9.022;2023-04-25T09:54:48;7.10;;;3.70;;
42802;SDS011;28447;48.682;9.022;2023-04-25T09:59:45;4.07;;;2.87;;
42802;SDS011;28447;48.682;9.022;2023-04-25T10:02:13;3.03;;;2.40;;
42802;SDS011;28447;48.682;9.022;2023-04-25T10:04:39;2.57;;;2.00;;
42802;SDS011;28447;48.682;9.022;2023-04-25T10:07:07;3.67;;;2.67;;
42802;SDS011;28447;48.682;9.022;2023-04-25T10:09:33;4.87;;;3.30;;
42802;SDS011;28447;48.682;9.022;2023-04-25T10:12:04;2.30;;;2.00;;
42802;SDS011;28447;48.682;9.022;2023-04-25T10:14:30;2.30;;;2.00;;
42802;SDS011;28447;48.682;9.022;2023-04-25T10:17:01;2.70;;;1.80;;
42802;SDS011;28447;48.682;9.022;2023-04-25T10:19:27;1.60;;;1.43;;
42802;SDS011;28447;48.682;9.022;2023-04-25T10:24:31;1.60;;;1.30;;
42802;SDS011;28447;48.682;9.022;2023-04-25T10:26:57;2.13;;;1.60;;
42802;SDS011;28447;48.682;9.022;2023-04-25T10:29:27;2.30;;;1.50;;
42802;SDS011;28447;48.682;9.022;2023-04-25T10:31:53;2.00;;;1.50;;
42802;SDS011;28447;48.682;9.022;2023-04-25T10:34:19;1.60;;;1.40;;
42802;SDS011;28447;48.682;9.022;2023-04-25T10:36:49;1.80;;;1.70;;
42802;SDS011;28447;48.682;9.022;2023-04-25T10:39:23;1.90;;;1.50;;
42802;SDS011;28447;48.682;9.022;2023-04-25T10:41:56;2.37;;;1.80;;
42802;SDS011;28447;48.682;9.022;2023-04-25T10:44:26;2.60;;;1.70;;
42802;SDS011;28447;48.682;9.022;2023-04-25T10:46:58;2.27;;;1.70;;
42802;SDS011;28447;48.682;9.022;2023-04-25T10:49:42;2.70;;;1.83;;
42802;SDS011;28447;48.682;9.022;2023-04-25T10:55:02;1.70;;;1.30;;
42802;SDS011;28447;48.682;9.022;2023-04-25T10:57:29;1.60;;;1.50;;
42802;SDS011;28447;48.682;9.022;2023-04-25T11:00:23;2.07;;;1.40;;
42802;SDS011;28447;48.682;9.022;2023-04-25T11:02:51;1.87;;;1.30;;
42802;SDS011;28447;48.682;9.022;2023-04-25T11:05:34;1.63;;;1.53;;
42802;SDS011;28447;48.682;9.022;2023-04-25T11:08:01;1.30;;;1.10;;
42802;SDS011;28447;48.682;9.022;2023-04-25T11:10:29;2.70;;;2.50;;
42802;SDS011;28447;48.682;9.022;2023-04-25T11:12:57;1.90;;;1.70;;
42802;SDS011;28447;48.682;9.022;2023-04-25T11:15:25;2.63;;;2.20;;
42802;SDS011;28447;48.682;9.022;2023-04-25T11:17:51;2.03;;;1.80;;
42802;SDS011;28447;48.682;9.022;2023-04-25T11:20:18;2.17;;;1.70;;
42802;SDS011;28447;48.682;9.022;2023-04-25T11:22:45;2.23;;;1.70;;
42802;SDS011;28447;48.682;9.022;2023-04-25T11:25:12;1.70;;;1.60;;
42802;SDS011;28447;48.682;9.022;2023-04-25T11:30:22;1.50;;;1.37;;
42802;SDS011;28447;48.682;9.022;2023-04-25T11:32:49;2.73;;;1.83;;
42802;SDS011;28447;48.682;9.022;2023-04-25T11:35:16;2.90;;;2.43;;
42802;SDS011;28447;48.682;9.022;2023-04-25T11:37:43;3.33;;;2.80;;
42802;SDS011;28447;48.682;9.022;2023-04-25T11:40:09;4.27;;;3.60;;
42802;SDS011;28447;48.682;9.022;2023-04-25T11:42:42;3.67;;;2.77;;
42802;SDS011;28447;48.682;9.022;2023-04-25T11:45:14;6.47;;;4.30;;
42802;SDS011;28447;48.682;9.022;2023-04-25T11:47:40;5.40;;;3.83;;
42802;SDS011;28447;48.682;9.022;2023-04-25T11:50:06;4.47;;;3.17;;
42802;SDS011;28447;48.682;9.022;2023-04-25T11:52:37;4.73;;;3.57;;
42802;SDS011;28447;48.682;9.022;2023-04-25T11:55:18;5.10;;;3.80;;
42802;SDS011;28447;48.682;9.022;2023-04-25T11:57:46;4.93;;;3.70;;
42802;SDS011;28447;48.682;9.022;2023-04-25T12:00:19;3.90;;;3.40;;
42802;SDS011;28447;48.682;9.022;2023-04-25T12:02:47;4.57;;;3.13;;
42802;SDS011;28447;48.682;9.022;2023-04-25T12:05:16;5.20;;;3.90;;
42802;SDS011;28447;48.682;9.022;2023-04-25T12:07:42;4.53;;;3.63;;
42802;SDS011;28447;48.682;9.022;2023-04-25T12:10:08;7.23;;;4.83;;
42802;SDS011;28447;48.682;9.022;2023-04-25T12:12:36;5.20;;;3.80;;
42802;SDS011;28447;48.682;9.022;2023-04-25T12:15:16;5.10;;;3.80;;
42802;SDS011;28447;48.682;9.022;2023-04-25T12:17:47;5.30;;;3.93;;
42802;SDS011;28447;48.682;9.022;2023-04-25T12:20:14;5.83;;;4.50;;
42802;SDS011;28447;48.682;9.022;2023-04-25T12:22:41;5.30;;;4.00;;
42802;SDS011;28447;48.682;9.022;2023-04-25T12:25:10;6.87;;;4.77;;
42802;SDS011;28447;48.682;9.022;2023-04-25T12:27:39;8.70;;;5.47;;
42802;SDS011;28447;48.682;9.022;2023-04-25T12:30:08;8.20;;;5.53;;
42802;SDS011;28447;48.682;9.022;2023-04-25T12:32:35;7.40;;;5.50;;
42802;SDS011;28447;48.682;9.022;2023-04-25T12:35:03;7.53;;;5.30;;
42802;SDS011;28447;48.682;9.022;2023-04-25T12:37:31;7.33;;;5.37;;
42802;SDS011;28447;48.682;9.022;2023-04-25T12:39:57;7.77;;;5.70;;
42802;SDS011;28447;48.682;9.022;2023-04-25T12:42:22;9.50;;;5.73;;
42802;SDS011;28447;48.682;9.022;2023-04-25T12:44:48;7.77;;;6.00;;
42802;SDS011;28447;48.682;9.022;2023-04-25T12:47:14;8.47;;;6.60;;
42802;SDS011;28447;48.682;9.022;2023-04-25T12:49:39;11.47;;;7.30;;
42802;SDS011;28447;48.682;9.022;2023-04-25T12:52:05;11.30;;;6.83;;
42802;SDS011;28447;48.682;9.022;2023-04-25T12:54:31;8.10;;;5.87;;
42802;SDS011;28447;48.682;9.022;2023-04-25T12:56:56;10.27;;;7.57;;
42802;SDS011;28447;48.682;9.022;2023-04-25T12:59:23;10.27;;;7.10;;
42802;SDS011;28447;48.682;9.022;2023-04-25T13:01:48;10.73;;;6.70;;
42802;SDS011;28447;48.682;9.022;2023-04-25T13:04:15;9.60;;;6.50;;
42802;SDS011;28447;48.682;9.022;2023-04-25T13:06:40;10.20;;;6.60;;
42802;SDS011;28447;48.682;9.022;2023-04-25T13:09:06;8.33;;;6.17;;
42802;SDS011;28447;48.682;9.022;2023-04-25T13:11:32;11.20;;;6.83;;
42802;SDS011;28447;48.682;9.022;2023-04-25T13:13:59;11.13;;;7.30;;
42802;SDS011;28447;48.682;9.022;2023-04-25T13:16:25;9.97;;;6.90;;
42802;SDS011;28447;48.682;9.022;2023-04-25T13:18:51;14.40;;;7.40;;
42802;SDS011;28447;48.682;9.022;2023-04-25T13:21:17;9.50;;;6.93;;
42802;SDS011;28447;48.682;9.022;2023-04-25T13:23:42;9.43;;;7.20;;
42802;SDS011;28447;48.682;9.022;2023-04-25T13:26:11;9.27;;;7.10;;
42802;SDS011;28447;48.682;9.022;2023-04-25T13:28:37;9.60;;;6.90;;
42802;SDS011;28447;48.682;9.022;2023-04-25T13:31:02;12.90;;;7.20;;
42802;SDS011;28447;48.682;9.022;2023-04-25T13:33:28;9.60;;;7.30;;
42802;SDS011;28447;48.682;9.022;2023-04-25T13:35:54;19.40;;;8.93;;
42802;SDS011;28447;48.682;9.022;2023-04-25T13:38:22;10.63;;;7.20;;
42802;SDS011;28447;48.682;9.022;2023-04-25T13:40:50;13.17;;;7.27;;
42802;SDS011;28447;48.682;9.022;2023-04-25T13:43:19;8.53;;;6.63;;
42802;SDS011;28447;48.682;9.022;2023-04-25T13:45:47;10.70;;;8.80;;
42802;SDS011;28447;48.682;9.022;2023-04-25T13:48:13;11.57;;;8.20;;
42802;SDS011;28447;48.682;9.022;2023-04-25T13:50:40;10.87;;;7.93;;
42802;SDS011;28447;48.682;9.022;2023-04-25T13:53:06;10.17;;;7.40;;
42802;SDS011;28447;48.682;9.022;2023-04-25T13:55:32;12.27;;;7.97;;
42802;SDS011;28447;48.682;9.022;2023-04-25T13:57:58;11.13;;;8.10;;
42802;SDS011;28447;48.682;9.022;2023-04-25T14:00:24;10.20;;;8.30;;
42802;SDS011;28447;48.682;9.022;2023-04-25T14:02:50;10.60;;;7.80;;
42802;SDS011;28447;48.682;9.022;2023-04-25T14:05:16;9.17;;;7.03;;
42802;SDS011;28447;48.682;9.022;2023-04-25T14:07:43;11.10;;;8.10;;
42802;SDS011;28447;48.682;9.022;2023-04-25T14:10:09;9.63;;;7.27;;
42802;SDS011;28447;48.682;9.022;2023-04-25T14:12:36;16.43;;;8.47;;
42802;SDS011;28447;48.682;9.022;2023-04-25T14:15:02;15.87;;;9.20;;
42802;SDS011;28447;48.682;9.022;2023-04-25T14:17:29;11.00;;;8.23;;
42802;SDS011;28447;48.682;9.022;2023-04-25T14:19:54;9.50;;;8.13;;
42802;SDS011;28447;48.682;9.022;2023-04-25T14:22:20;10.90;;;7.50;;
42802;SDS011;28447;48.682;9.022;2023-04-25T14:24:46;11.13;;;7.80;;
42802;SDS011;28447;48.682;9.022;2023-04-25T14:27:11;11.27;;;8.20;;
42802;SDS011;28447;48.682;9.022;2023-04-25T14:29:37;11.63;;;8.50;;
42802;SDS011;28447;48.682;9.022;2023-04-25T14:32:03;8.73;;;7.03;;
42802;SDS011;28447;48.682;9.022;2023-04-25T14:34:30;9.83;;;6.73;;
42802;SDS011;28447;48.682;9.022;2023-04-25T14:36:56;8.27;;;5.67;;
42802;SDS011;28447;48.682;9.022;2023-04-25T14:39:21;8.17;;;6.30;;
42802;SDS011;28447;48.682;9.022;2023-04-25T14:41:48;11.77;;;6.73;;
42802;SDS011;28447;48.682;9.022;2023-04-25T14:44:14;7.97;;;6.27;;
42802;SDS011;28447;48.682;9.022;2023-04-25T14:46:40;8.73;;;6.90;;
42802;SDS011;28447;48.682;9.022;2023-04-25T14:49:05;8.00;;;6.20;;
42802;SDS011;28447;48.682;9.022;2023-04-25T14:51:32;7.97;;;5.43;;
42802;SDS011;28447;48.682;9.022;2023-04-25T14:53:57;7.03;;;5.57;;
42802;SDS011;28447;48.682;9.022;2023-04-25T14:56:24;8.57;;;5.93;;
42802;SDS011;28447;48.682;9.022;2023-04-25T14:58:49;6.60;;;5.00;;
42802;SDS011;28447;48.682;9.022;2023-04-25T15:01:15;6.80;;;5.03;;
42802;SDS011;28447;48.682;9.022;2023-04-25T15:03:41;6.40;;;5.20;;
42802;SDS011;28447;48.682;9.022;2023-04-25T15:06:08;12.40;;;4.50;;
42802;SDS011;28447;48.682;9.022;2023-04-25T15:08:34;8.63;;;5.10;;
42802;SDS011;28447;48.682;9.022;2023-04-25T15:11:00;5.03;;;4.53;;
42802;SDS011;28447;48.682;9.022;2023-04-25T15:13:27;5.10;;;4.43;;
42802;SDS011;28447;48.682;9.022;2023-04-25T15:15:56;5.70;;;3.90;;
42802;SDS011;28447;48.682;9.022;2023-04-25T15:18:22;3.57;;;3.23;;
42802;SDS011;28447;48.682;9.022;2023-04-25T15:20:52;4.10;;;3.67;;
42802;SDS011;28447;48.682;9.022;2023-04-25T15:23:18;3.87;;;3.43;;
42802;SDS011;28447;48.682;9.022;2023-04-25T15:25:45;3.87;;;3.23;;
42802;SDS011;28447;48.682;9.022;2023-04-25T15:28:12;6.40;;;3.67;;
42802;SDS011;28447;48.682;9.022;2023-04-25T15:30:40;4.20;;;3.30;;
42802;SDS011;28447;48.682;9.022;2023-04-25T15:33:06;3.80;;;3.10;;
42802;SDS011;28447;48.682;9.022;2023-04-25T15:35:32;3.70;;;3.40;;
42802;SDS011;28447;48.682;9.022;2023-04-25T15:38:18;4.30;;;3.90;;
42802;SDS011;28447;48.682;9.022;2023-04-25T15:40:43;4.30;;;3.90;;
42802;SDS011;28447;48.682;9.022;2023-04-25T15:43:09;4.10;;;3.60;;
42802;SDS011;28447;48.682;9.022;2023-04-25T15:45:39;4.30;;;3.43;;
42802;SDS011;28447;48.682;9.022;2023-04-25T15:48:05;5.50;;;3.73;;
42802;SDS011;28447;48.682;9.022;2023-04-25T15:50:31;6.27;;;3.57;;
42802;SDS011;28447;48.682;9.022;2023-04-25T15:52:57;4.80;;;4.00;;
42802;SDS011;28447;48.682;9.022;2023-04-25T15:55:23;5.10;;;3.80;;
42802;SDS011;28447;48.682;9.022;2023-04-25T15:57:50;6.13;;;4.23;;
42802;SDS011;28447;48.682;9.022;2023-04-25T16:00:16;6.17;;;3.90;;
42802;SDS011;28447;48.682;9.022;2023-04-25T16:02:44;9.50;;;4.90;;
42802;SDS011;28447;48.682;9.022;2023-04-25T16:05:11;6.87;;;4.67;;
42802;SDS011;28447;48.682;9.022;2023-04-25T16:07:40;7.10;;;5.00;;
42802;SDS011;28447;48.682;9.022;2023-04-25T16:10:12;5.90;;;5.30;;
42802;SDS011;28447;48.682;9.022;2023-04-25T16:12:38;8.60;;;5.30;;
42802;SDS011;28447;48.682;9.022;2023-04-25T16:15:05;6.50;;;5.10;;
42802;SDS011;28447;48.682;9.022;2023-04-25T16:17:31;9.50;;;6.10;;
42802;SDS011;28447;48.682;9.022;2023-04-25T16:19:58;7.20;;;5.70;;
42802;SDS011;28447;48.682;9.022;2023-04-25T16:22:31;6.13;;;4.93;;
42802;SDS011;28447;48.682;9.022;2023-04-25T16:24:57;8.40;;;5.20;;
42802;SDS011;28447;48.682;9.022;2023-04-25T16:27:24;7.93;;;5.07;;
42802;SDS011;28447;48.682;9.022;2023-04-25T16:29:50;6.97;;;5.73;;
42802;SDS011;28447;48.682;9.022;2023-04-25T16:32:16;7.97;;;5.80;;
42802;SDS011;28447;48.682;9.022;2023-04-25T16:34:42;8.40;;;6.17;;
42802;SDS011;28447;48.682;9.022;2023-04-25T16:37:08;8.27;;;5.23;;
42802;SDS011;28447;48.682;9.022;2023-04-25T16:39:35;7.70;;;5.67;;
42802;SDS011;28447;48.682;9.022;2023-04-25T16:42:02;6.70;;;5.50;;
42802;SDS011;28447;48.682;9.022;2023-04-25T16:44:28;8.60;;;5.60;;
42802;SDS011;28447;48.682;9.022;2023-04-25T16:46:55;8.60;;;6.30;;
42802;SDS011;28447;48.682;9.022;2023-04-25T16:49:21;7.40;;;6.10;;
42802;SDS011;28447;48.682;9.022;2023-04-25T16:51:47;11.40;;;6.40;;
42802;SDS011;28447;48.682;9.022;2023-04-25T16:54:13;8.23;;;6.37;;
42802;SDS011;28447;48.682;9.022;2023-04-25T16:56:40;8.03;;;6.50;;
42802;SDS011;28447;48.682;9.022;2023-04-25T16:59:06;7.63;;;5.67;;
42802;SDS011;28447;48.682;9.022;2023-04-25T17:01:32;8.90;;;6.00;;
42802;SDS011;28447;48.682;9.022;2023-04-25T17:03:58;12.67;;;7.57;;
42802;SDS011;28447;48.682;9.022;2023-04-25T17:06:24;9.37;;;6.37;;
42802;SDS011;28447;48.682;9.022;2023-04-25T17:08:50;16.73;;;6.83;;
42802;SDS011;28447;48.682;9.022;2023-04-25T17:11:16;8.63;;;6.80;;
42802;SDS011;28447;48.682;9.022;2023-04-25T17:13:42;8.77;;;6.10;;
42802;SDS011;28447;48.682;9.022;2023-04-25T17:16:09;8.40;;;6.83;;
42802;SDS011;28447;48.682;9.022;2023-04-25T17:18:47;10.10;;;6.23;;
42802;SDS011;28447;48.682;9.022;2023-04-25T17:21:25;10.93;;;6.00;;
42802;SDS011;28447;48.682;9.022;2023-04-25T17:23:53;9.13;;;6.40;;
42802;SDS011;28447;48.682;9.022;2023-04-25T17:26:21;8.73;;;6.67;;
42802;SDS011;28447;48.682;9.022;2023-04-25T17:28:47;8.70;;;6.07;;
42802;SDS011;28447;48.682;9.022;2023-04-25T17:31:14;8.57;;;5.83;;
42802;SDS011;28447;48.682;9.022;2023-04-25T17:33:42;9.53;;;6.40;;
42802;SDS011;28447;48.682;9.022;2023-04-25T17:36:08;11.67;;;6.93;;
42802;SDS011;28447;48.682;9.022;2023-04-25T17:38:35;13.83;;;7.23;;
42802;SDS011;28447;48.682;9.022;2023-04-25T17:41:10;13.10;;;7.63;;
42802;SDS011;28447;48.682;9.022;2023-04-25T17:43:38;11.23;;;7.20;;
42802;SDS011;28447;48.682;9.022;2023-04-25T17:46:04;8.63;;;6.53;;
42802;SDS011;28447;48.682;9.022;2023-04-25T17:48:30;14.67;;;7.20;;
42802;SDS011;28447;48.682;9.022;2023-04-25T17:50:57;11.53;;;7.13;;
42802;SDS011;28447;48.682;9.022;2023-04-25T17:53:23;10.20;;;7.70;;
42802;SDS011;28447;48.682;9.022;2023-04-25T17:55:49;10.37;;;7.60;;
42802;SDS011;28447;48.682;9.022;2023-04-25T17:58:17;11.10;;;6.87;;
42802;SDS011;28447;48.682;9.022;2023-04-25T18:00:43;9.53;;;6.03;;
42802;SDS011;28447;48.682;9.022;2023-04-25T18:03:09;8.30;;;6.37;;
42802;SDS011;28447;48.682;9.022;2023-04-25T18:05:38;8.20;;;5.87;;
42802;SDS011;28447;48.682;9.022;2023-04-25T18:08:05;8.60;;;6.20;;
42802;SDS011;28447;48.682;9.022;2023-04-25T18:10:31;9.63;;;5.80;;
42802;SDS011;28447;48.682;9.022;2023-04-25T18:12:58;9.97;;;5.50;;
42802;SDS011;28447;48.682;9.022;2023-04-25T18:15:24;8.10;;;5.13;;
42802;SDS011;28447;48.682;9.022;2023-04-25T18:17:51;6.80;;;5.37;;
42802;SDS011;28447;48.682;9.022;2023-04-25T18:20:17;8.80;;;5.30;;
42802;SDS011;28447;48.682;9.022;2023-04-25T18:22:44;8.80;;;6.37;;
42802;SDS011;28447;48.682;9.022;2023-04-25T18:25:11;9.27;;;5.63;;
42802;SDS011;28447;48.682;9.022;2023-04-25T18:27:38;9.43;;;5.47;;
42802;SDS011;28447;48.682;9.022;2023-04-25T18:30:05;8.10;;;5.37;;
42802;SDS011;28447;48.682;9.022;2023-04-25T18:32:32;7.93;;;5.00;;
42802;SDS011;28447;48.682;9.022;2023-04-25T18:34:59;7.13;;;5.40;;
42802;SDS011;28447;48.682;9.022;2023-04-25T18:37:25;8.60;;;5.33;;
42802;SDS011;28447;48.682;9.022;2023-04-25T18:39:52;11.20;;;5.13;;
42802;SDS011;28447;48.682;9.022;2023-04-25T18:42:18;7.60;;;5.40;;
42802;SDS011;28447;48.682;9.022;2023-04-25T18:44:45;8.73;;;5.90;;
42802;SDS011;28447;48.682;9.022;2023-04-25T18:47:11;9.20;;;6.47;;
42802;SDS011;28447;48.682;9.022;2023-04-25T18:49:38;10.40;;;6.07;;
42802;SDS011;28447;48.682;9.022;2023-04-25T18:52:04;9.50;;;6.33;;
42802;SDS011;28447;48.682;9.022;2023-04-25T18:54:34;11.80;;;5.83;;
42802;SDS011;28447;48.682;9.022;2023-04-25T18:57:01;8.00;;;5.70;;